createdAt,value
2022-11-15T00:01:20.947Z,13.50
2022-11-15T00:03:25.557Z,13.37
2022-11-15T00:05:27.775Z,13.41
2022-11-15T00:07:54.182Z,13.26
2022-11-15T00:09:51.170Z,13.29
2022-11-15T00:11:52.978Z,13.30
2022-11-15T00:13:58.514Z,13.32
2022-11-15T00:16:02.001Z,13.31
2022-11-15T00:18:05.452Z,13.29
2022-11-15T00:20:07.803Z,13.25
2022-11-15T00:22:09.473Z,13.23
2022-11-15T00:24:11.252Z,13.28
2022-11-15T00:26:15.265Z,13.26
2022-11-15T00:28:16.969Z,13.26
2022-11-15T00:30:19.015Z,13.31
2022-11-15T00:32:20.722Z,13.22
2022-11-15T00:34:22.443Z,13.24
2022-11-15T00:36:24.450Z,13.26
2022-11-15T00:38:26.142Z,13.19
2022-11-15T00:40:28.114Z,13.19
2022-11-15T00:42:29.758Z,13.25
2022-11-15T00:44:31.486Z,13.13
2022-11-15T00:46:33.132Z,13.24
2022-11-15T00:48:34.874Z,13.17
2022-11-15T00:50:36.539Z,13.19
2022-11-15T00:52:38.414Z,13.19
2022-11-15T00:54:40.110Z,13.11
2022-11-15T00:56:41.777Z,13.09
2022-11-15T00:58:43.470Z,13.13
2022-11-15T01:00:45.232Z,13.13
2022-11-15T01:02:47.030Z,13.12
2022-11-15T01:04:48.727Z,13.17
2022-11-15T01:06:50.502Z,13.12
2022-11-15T01:08:52.497Z,13.18
2022-11-15T01:10:54.123Z,13.12
2022-11-15T01:12:55.896Z,13.09
2022-11-15T01:14:57.840Z,13.16
2022-11-15T01:16:59.509Z,13.10
2022-11-15T01:19:01.165Z,13.06
2022-11-15T01:21:07.837Z,13.10
2022-11-15T01:23:10.134Z,13.14
2022-11-15T01:25:11.993Z,13.12
2022-11-15T01:27:13.926Z,13.10
2022-11-15T01:29:15.663Z,13.00
2022-11-15T01:31:20.759Z,12.95
2022-11-15T01:33:22.447Z,13.01
2022-11-15T01:35:24.193Z,13.00
2022-11-15T01:37:25.928Z,12.99
2022-11-15T01:39:27.848Z,12.76
2022-11-15T01:41:33.288Z,12.89
2022-11-15T01:43:37.668Z,12.85
2022-11-15T01:45:39.907Z,12.85
2022-11-15T01:47:49.793Z,12.87
2022-11-15T01:50:05.203Z,12.82
2022-11-15T01:52:11.657Z,12.74
2022-11-15T01:54:17.569Z,12.75
2022-11-15T01:56:26.504Z,12.73
2022-11-15T01:58:28.208Z,12.71
2022-11-15T02:00:31.703Z,12.75
2022-11-15T02:02:42.506Z,12.70
2022-11-15T02:04:45.744Z,12.71
2022-11-15T02:06:49.324Z,12.79
2022-11-15T02:08:52.081Z,12.85
2022-11-15T02:10:53.849Z,12.79
2022-11-15T02:13:00.797Z,12.80
2022-11-15T02:15:03.933Z,12.78
2022-11-15T02:17:14.399Z,12.85
2022-11-15T02:19:34.418Z,12.78
2022-11-15T02:22:01.036Z,12.78
2022-11-15T02:24:31.589Z,12.75
2022-11-15T02:27:18.351Z,12.66
2022-11-15T02:29:39.001Z,12.70
2022-11-15T02:31:49.556Z,12.71
2022-11-15T02:34:20.882Z,12.74
2022-11-15T02:36:50.085Z,12.65
2022-11-15T02:39:01.061Z,12.73
2022-11-15T02:41:11.169Z,12.78
2022-11-15T02:43:37.558Z,12.83
2022-11-15T02:45:49.621Z,12.91
2022-11-15T02:47:55.963Z,12.93
2022-11-15T02:50:06.229Z,12.91
2022-11-15T02:52:07.997Z,12.81
2022-11-15T02:54:22.166Z,12.86
2022-11-15T02:56:23.864Z,12.87
2022-11-15T02:58:43.700Z,12.94
2022-11-15T03:01:05.597Z,12.88
2022-11-15T03:03:38.026Z,12.93
2022-11-15T03:05:51.538Z,12.89
2022-11-15T03:08:06.578Z,12.77
2022-11-15T03:10:22.487Z,12.94
2022-11-15T03:13:01.254Z,12.99
2022-11-15T03:15:11.044Z,13.03
2022-11-15T03:17:27.618Z,12.97
2022-11-15T03:19:51.457Z,13.03
2022-11-15T03:21:56.287Z,13.04
2022-11-15T03:24:06.469Z,12.98
2022-11-15T03:26:15.644Z,13.05
2022-11-15T03:28:43.884Z,13.13
2022-11-15T03:30:48.962Z,13.18
2022-11-15T03:32:56.870Z,13.16
2022-11-15T03:35:24.696Z,13.21
2022-11-15T03:37:42.731Z,13.22
2022-11-15T03:39:45.025Z,13.23
2022-11-15T03:41:50.123Z,13.24
2022-11-15T03:44:02.734Z,13.26
2022-11-15T03:46:41.192Z,13.22
2022-11-15T03:48:50.386Z,13.31
2022-11-15T03:50:52.355Z,13.28
2022-11-15T03:52:56.042Z,13.17
2022-11-15T03:54:58.303Z,13.29
2022-11-15T03:57:00.009Z,13.26
2022-11-15T03:59:01.878Z,13.26
2022-11-15T04:01:03.759Z,13.35
2022-11-15T04:03:05.607Z,13.20
2022-11-15T04:05:07.644Z,13.40
2022-11-15T04:07:09.527Z,13.44
2022-11-15T04:09:11.689Z,13.51
2022-11-15T04:11:13.327Z,13.37
2022-11-15T04:13:14.964Z,13.30
2022-11-15T04:15:19.641Z,13.44
2022-11-15T04:17:21.578Z,13.41
2022-11-15T04:19:41.746Z,13.34
2022-11-15T04:22:02.089Z,13.29
2022-11-15T04:24:15.962Z,13.28
2022-11-15T04:26:20.823Z,13.28
2022-11-15T04:28:23.393Z,13.27
2022-11-15T04:30:25.087Z,13.35
2022-11-15T04:32:26.797Z,13.32
2022-11-15T04:34:28.445Z,13.32
2022-11-15T04:36:48.845Z,13.32
2022-11-15T04:38:50.488Z,13.36
2022-11-15T04:40:52.515Z,13.41
2022-11-15T04:42:55.520Z,13.41
2022-11-15T04:45:00.516Z,13.36
2022-11-15T04:47:02.951Z,13.46
2022-11-15T04:49:04.670Z,13.48
2022-11-15T04:51:06.379Z,13.46
2022-11-15T04:53:08.069Z,13.43
2022-11-15T04:55:14.036Z,13.54
2022-11-15T04:57:15.927Z,13.52
2022-11-15T04:59:17.641Z,13.63
2022-11-15T05:01:19.385Z,13.63
2022-11-15T05:03:39.727Z,13.63
2022-11-15T05:05:41.607Z,13.68
2022-11-15T05:07:43.685Z,13.70
2022-11-15T05:09:45.445Z,13.69
2022-11-15T05:11:47.878Z,13.69
2022-11-15T05:13:49.784Z,13.67
2022-11-15T05:15:51.494Z,13.66
2022-11-15T05:17:59.065Z,13.77
2022-11-15T05:20:00.814Z,13.75
2022-11-15T05:22:02.529Z,13.82
2022-11-15T05:24:04.927Z,13.62
2022-11-15T05:26:09.376Z,13.80
2022-11-15T05:28:11.236Z,13.84
2022-11-15T05:30:12.943Z,13.84
2022-11-15T05:32:14.907Z,13.81
2022-11-15T05:34:18.341Z,13.91
2022-11-15T05:36:39.552Z,13.95
2022-11-15T05:38:41.473Z,13.92
2022-11-15T05:40:43.239Z,13.99
2022-11-15T05:42:56.611Z,14.03
2022-11-15T05:44:59.657Z,14.07
2022-11-15T05:47:01.450Z,14.07
2022-11-15T05:49:03.746Z,14.07
2022-11-15T05:51:07.773Z,14.00
2022-11-15T05:53:12.410Z,14.10
2022-11-15T05:55:14.897Z,14.09
2022-11-15T05:57:17.422Z,14.14
2022-11-15T05:59:20.007Z,14.12
2022-11-15T06:01:22.094Z,14.14
2022-11-15T06:03:23.800Z,14.03
2022-11-15T06:05:25.623Z,14.10
2022-11-15T06:07:27.328Z,14.13
2022-11-15T06:09:30.147Z,14.07
2022-11-15T06:11:31.881Z,14.04
2022-11-15T06:13:34.660Z,14.05
2022-11-15T06:15:36.393Z,14.08
2022-11-15T06:17:38.226Z,14.15
2022-11-15T06:19:39.855Z,14.13
2022-11-15T06:21:41.747Z,14.15
2022-11-15T06:23:43.644Z,14.16
2022-11-15T06:25:45.444Z,14.02
2022-11-15T06:27:52.964Z,14.11
2022-11-15T06:29:54.744Z,14.14
2022-11-15T06:31:56.401Z,14.22
2022-11-15T06:33:58.063Z,14.12
2022-11-15T06:36:09.228Z,14.21
2022-11-15T06:38:13.726Z,14.23
2022-11-15T06:40:15.843Z,14.20
2022-11-15T06:42:17.585Z,14.20
2022-11-15T06:44:19.255Z,14.16
2022-11-15T06:46:20.965Z,14.06
2022-11-15T06:48:22.711Z,14.05
2022-11-15T06:50:24.748Z,14.05
2022-11-15T06:52:26.408Z,13.82
2022-11-15T06:54:28.260Z,13.95
2022-11-15T06:56:30.151Z,14.04
2022-11-15T06:58:32.332Z,13.98
2022-11-15T07:00:34.448Z,13.88
2022-11-15T07:02:36.102Z,13.90
2022-11-15T07:04:37.805Z,13.71
2022-11-15T07:06:39.606Z,13.86
2022-11-15T07:08:42.792Z,13.58
2022-11-15T07:10:44.465Z,13.67
2022-11-15T07:12:49.849Z,13.64
2022-11-15T07:14:51.591Z,13.83
2022-11-15T07:16:53.266Z,13.78
2022-11-15T07:18:54.962Z,13.77
2022-11-15T07:20:56.719Z,13.77
2022-11-15T07:23:05.863Z,13.70
2022-11-15T07:25:08.276Z,13.72
2022-11-15T07:27:10.509Z,13.66
2022-11-15T07:29:12.447Z,13.71
2022-11-15T07:31:14.114Z,13.57
2022-11-15T07:33:15.776Z,13.56
2022-11-15T07:35:17.409Z,13.54
2022-11-15T07:37:19.739Z,13.54
2022-11-15T07:39:21.446Z,13.46
2022-11-15T07:41:23.127Z,13.58
2022-11-15T07:43:24.885Z,13.43
2022-11-15T07:45:29.648Z,13.45
2022-11-15T07:47:31.430Z,13.43
2022-11-15T07:49:33.197Z,13.39
2022-11-15T07:51:34.877Z,13.45
2022-11-15T07:53:36.550Z,13.40
2022-11-15T07:55:38.596Z,13.49
2022-11-15T07:57:40.309Z,13.42
2022-11-15T07:59:41.988Z,13.41
2022-11-15T08:01:46.289Z,13.24
2022-11-15T08:03:48.113Z,13.29
2022-11-15T08:05:53.661Z,13.39
2022-11-15T08:07:59.156Z,13.33
2022-11-15T08:10:05.040Z,13.37
2022-11-15T08:12:06.954Z,13.42
2022-11-15T08:14:08.619Z,13.23
2022-11-15T08:16:10.275Z,13.32
2022-11-15T08:18:16.622Z,13.35
2022-11-15T08:20:18.334Z,13.21
2022-11-15T08:22:20.391Z,13.28
2022-11-15T08:24:22.209Z,13.23
2022-11-15T08:26:25.856Z,13.20
2022-11-15T08:28:27.588Z,13.31
2022-11-15T08:30:31.285Z,13.28
2022-11-15T08:32:33.086Z,13.27
2022-11-15T08:34:34.854Z,13.30
2022-11-15T08:36:44.559Z,13.19
2022-11-15T08:38:47.888Z,13.19
2022-11-15T08:40:50.005Z,13.23
2022-11-15T08:42:54.955Z,13.35
2022-11-15T08:44:56.893Z,13.31
2022-11-15T08:46:58.690Z,13.28
2022-11-15T08:49:00.420Z,13.38
2022-11-15T08:51:02.147Z,13.36
2022-11-15T08:53:09.645Z,13.41
2022-11-15T08:55:11.302Z,13.39
2022-11-15T08:57:13.491Z,13.30
2022-11-15T08:59:15.234Z,13.46
2022-11-15T09:01:19.569Z,13.44
2022-11-15T09:03:21.757Z,13.56
2022-11-15T09:05:23.731Z,13.51
2022-11-15T09:07:25.655Z,13.55
2022-11-15T09:09:27.359Z,13.54
2022-11-15T09:11:29.069Z,13.62
2022-11-15T09:13:30.780Z,13.55
2022-11-15T09:15:32.526Z,13.61
2022-11-15T09:17:34.350Z,13.55
2022-11-15T09:19:36.152Z,13.59
2022-11-15T09:21:37.850Z,13.56
2022-11-15T09:23:39.828Z,13.55
2022-11-15T09:25:41.487Z,13.62
2022-11-15T09:27:43.145Z,13.73
2022-11-15T09:29:44.789Z,13.69
2022-11-15T09:31:46.545Z,13.57
2022-11-15T09:33:48.241Z,13.70
2022-11-15T09:35:49.932Z,13.81
2022-11-15T09:37:56.185Z,13.73
2022-11-15T09:39:58.242Z,13.81
2022-11-15T09:42:26.107Z,13.69
2022-11-15T09:44:46.356Z,13.75
2022-11-15T09:47:43.489Z,13.74
2022-11-15T09:49:45.549Z,13.69
2022-11-15T09:51:51.297Z,13.58
2022-11-15T09:54:45.499Z,13.67
2022-11-15T09:56:31.750Z,13.66
2022-11-15T09:59:04.845Z,13.71
2022-11-15T10:01:17.435Z,13.69
2022-11-15T10:03:36.067Z,13.82
2022-11-15T10:05:48.529Z,13.79
2022-11-15T10:08:00.604Z,13.75
2022-11-15T10:10:12.885Z,13.81
2022-11-15T10:12:15.375Z,13.89
2022-11-15T10:14:22.947Z,13.89
2022-11-15T10:17:18.217Z,13.85
2022-11-15T10:19:32.906Z,13.96
2022-11-15T10:22:02.354Z,13.96
2022-11-15T10:24:12.328Z,13.89
2022-11-15T10:26:17.489Z,13.87
2022-11-15T10:28:26.972Z,13.80
2022-11-15T10:30:37.015Z,13.88
2022-11-15T10:32:44.354Z,13.82
2022-11-15T10:34:46.827Z,13.93
2022-11-15T10:36:57.403Z,13.94
2022-11-15T10:38:59.521Z,13.98
2022-11-15T10:41:08.827Z,13.98
2022-11-15T10:43:10.395Z,14.07
2022-11-15T10:45:39.305Z,13.98
2022-11-15T10:47:40.970Z,13.93
2022-11-15T10:50:15.343Z,13.97
2022-11-15T10:52:20.422Z,13.79
2022-11-15T10:54:29.931Z,13.83
2022-11-15T10:56:31.716Z,13.78
2022-11-15T10:58:54.190Z,13.73
2022-11-15T11:00:55.884Z,13.86
2022-11-15T11:02:57.560Z,13.84
2022-11-15T11:05:00.519Z,13.82
2022-11-15T11:07:02.199Z,13.77
2022-11-15T11:09:07.017Z,13.79
2022-11-15T11:11:09.685Z,13.86
2022-11-15T11:13:15.493Z,13.87
2022-11-15T11:15:18.122Z,13.96
2022-11-15T11:17:44.223Z,13.92
2022-11-15T11:20:35.417Z,13.92
2022-11-15T11:23:21.645Z,13.95
2022-11-15T11:25:41.672Z,14.02
2022-11-15T11:28:27.679Z,13.91
2022-11-15T11:30:35.365Z,13.95
2022-11-15T11:32:45.582Z,13.95
2022-11-15T11:35:14.313Z,14.01
2022-11-15T11:37:25.160Z,14.05
2022-11-15T11:39:34.609Z,14.06
2022-11-15T11:42:01.606Z,14.03
2022-11-15T11:44:27.879Z,14.05
2022-11-15T11:46:29.544Z,14.04
2022-11-15T11:48:42.320Z,14.09
2022-11-15T11:50:46.800Z,13.98
2022-11-15T11:53:04.419Z,13.98
2022-11-15T11:55:41.280Z,14.03
2022-11-15T11:57:52.047Z,14.00
2022-11-15T12:00:15.379Z,14.03
2022-11-15T12:02:26.253Z,14.04
2022-11-15T12:04:39.234Z,14.08
2022-11-15T12:06:59.182Z,14.06
2022-11-15T12:09:13.157Z,13.95
2022-11-15T12:11:25.609Z,13.96
2022-11-15T12:13:34.480Z,14.09
2022-11-15T12:16:02.887Z,14.16
2022-11-15T12:18:13.797Z,14.16
2022-11-15T12:20:17.926Z,14.12
2022-11-15T12:22:32.963Z,14.02
2022-11-15T12:24:49.918Z,14.05
2022-11-15T12:27:01.157Z,14.10
2022-11-15T12:29:12.248Z,14.14
2022-11-15T12:31:20.821Z,14.07
2022-11-15T12:33:38.201Z,14.06
2022-11-15T12:35:43.119Z,14.10
2022-11-15T12:37:58.993Z,14.11
2022-11-15T12:40:27.155Z,13.93
2022-11-15T12:42:31.790Z,14.01
2022-11-15T12:44:33.876Z,13.95
2022-11-15T12:46:42.367Z,14.09
2022-11-15T12:48:43.953Z,14.16
2022-11-15T12:51:06.089Z,14.15
2022-11-15T12:53:26.295Z,14.24
2022-11-15T12:55:34.175Z,14.26
2022-11-15T12:57:40.555Z,14.25
2022-11-15T13:00:14.690Z,14.25
2022-11-15T13:02:27.587Z,14.20
2022-11-15T13:04:30.951Z,14.34
2022-11-15T13:06:47.850Z,14.20
2022-11-15T13:08:51.902Z,14.23
2022-11-15T13:10:53.701Z,14.24
2022-11-15T13:13:08.446Z,14.24
2022-11-15T13:15:13.498Z,14.26
2022-11-15T13:17:21.032Z,14.37
2022-11-15T13:19:24.246Z,14.45
2022-11-15T13:21:44.722Z,14.50
2022-11-15T13:23:46.625Z,14.50
2022-11-15T13:26:13.098Z,14.66
2022-11-15T13:28:17.615Z,14.73
2022-11-15T13:30:24.701Z,14.71
2022-11-15T13:32:26.664Z,14.88
2022-11-15T13:34:53.156Z,14.95
2022-11-15T13:36:55.405Z,14.88
2022-11-15T13:39:15.390Z,15.09
2022-11-15T13:41:26.211Z,15.17
2022-11-15T13:43:32.635Z,15.25
2022-11-15T13:45:34.387Z,15.18
2022-11-15T13:47:36.289Z,15.24
2022-11-15T13:49:38.869Z,15.36
2022-11-15T13:51:44.032Z,15.46
2022-11-15T13:53:52.045Z,15.65
2022-11-15T13:55:57.230Z,15.70
2022-11-15T13:58:07.515Z,15.69
2022-11-15T14:00:40.001Z,15.73
2022-11-15T14:02:42.335Z,15.82
2022-11-15T14:04:58.148Z,15.87
2022-11-15T14:07:02.261Z,15.79
2022-11-15T14:09:10.209Z,15.99
2022-11-15T14:11:18.327Z,16.07
2022-11-15T14:13:31.349Z,15.91
2022-11-15T14:15:40.305Z,16.05
2022-11-15T14:17:47.151Z,16.16
2022-11-15T14:19:52.294Z,16.22
2022-11-15T14:22:23.277Z,16.15
2022-11-15T14:24:32.408Z,16.25
2022-11-15T14:26:36.111Z,16.32
2022-11-15T14:28:40.269Z,16.35
2022-11-15T14:30:44.174Z,16.42
2022-11-15T14:32:58.072Z,16.40
2022-11-15T14:35:01.862Z,16.45
2022-11-15T14:37:03.487Z,16.37
2022-11-15T14:39:06.440Z,16.35
2022-11-15T14:41:22.591Z,16.31
2022-11-15T14:43:24.329Z,16.34
2022-11-15T14:45:28.411Z,16.12
2022-11-15T14:47:30.039Z,16.20
2022-11-15T14:49:31.667Z,16.27
2022-11-15T14:51:34.274Z,16.26
2022-11-15T14:53:35.983Z,16.30
2022-11-15T14:55:37.759Z,16.21
2022-11-15T14:57:39.454Z,16.19
2022-11-15T14:59:41.135Z,16.12
2022-11-15T15:01:43.084Z,16.07
2022-11-15T15:03:45.287Z,16.02
2022-11-15T15:05:48.064Z,15.92
2022-11-15T15:07:50.806Z,15.93
2022-11-15T15:10:02.736Z,15.84
2022-11-15T15:12:19.175Z,15.77
2022-11-15T15:14:20.864Z,15.68
2022-11-15T15:16:22.749Z,15.68
2022-11-15T15:18:24.367Z,15.71
2022-11-15T15:20:26.201Z,15.72
2022-11-15T15:22:30.984Z,15.66
2022-11-15T15:24:33.202Z,15.59
2022-11-15T15:26:37.416Z,15.51
2022-11-15T15:28:40.797Z,15.44
2022-11-15T15:30:42.904Z,15.46
2022-11-15T15:32:44.741Z,15.33
2022-11-15T15:34:46.522Z,15.41
2022-11-15T15:36:48.157Z,15.38
2022-11-15T15:38:49.853Z,15.25
2022-11-15T15:40:51.981Z,15.21
2022-11-15T15:42:54.248Z,15.26
2022-11-15T15:44:56.037Z,15.28
2022-11-15T15:46:58.926Z,15.35
2022-11-15T15:49:00.655Z,15.26
2022-11-15T15:51:06.872Z,15.20
2022-11-15T15:53:13.937Z,15.23
2022-11-15T15:55:15.615Z,15.22
2022-11-15T15:57:17.452Z,15.23
2022-11-15T15:59:19.095Z,15.22
2022-11-15T16:01:21.027Z,15.15
2022-11-15T16:03:23.422Z,15.13
2022-11-15T16:05:25.354Z,15.02
2022-11-15T16:07:29.315Z,14.94
2022-11-15T16:09:49.808Z,15.02
2022-11-15T16:11:51.436Z,14.98
2022-11-15T16:13:53.089Z,14.94
2022-11-15T16:15:56.165Z,14.86
2022-11-15T16:18:00.518Z,14.79
2022-11-15T16:20:02.673Z,14.81
2022-11-15T16:22:04.303Z,14.70
2022-11-15T16:24:06.368Z,14.83
2022-11-15T16:26:22.600Z,14.73
2022-11-15T16:28:29.046Z,14.73
2022-11-15T16:30:31.077Z,14.72
2022-11-15T16:32:34.029Z,14.69
2022-11-15T16:34:41.125Z,14.65
2022-11-15T16:36:44.598Z,14.77
2022-11-15T16:38:46.688Z,14.76
2022-11-15T16:40:48.700Z,14.70
2022-11-15T16:42:52.349Z,14.68
2022-11-15T16:44:53.990Z,14.76
2022-11-15T16:46:55.652Z,14.66
2022-11-15T16:48:57.697Z,14.70
2022-11-15T16:51:00.010Z,14.69
2022-11-15T16:53:02.105Z,14.62
2022-11-15T16:55:04.063Z,14.63
2022-11-15T16:57:05.695Z,14.64
2022-11-15T16:59:07.810Z,14.57
2022-11-15T17:01:20.437Z,14.55
2022-11-15T17:03:25.365Z,14.43
2022-11-15T17:05:30.080Z,14.46
2022-11-15T17:07:31.726Z,14.41
2022-11-15T17:09:34.350Z,14.44
2022-11-15T17:14:10.050Z,14.32
2022-11-15T17:16:16.763Z,14.37
2022-11-15T17:18:19.515Z,14.22
2022-11-15T17:20:23.795Z,14.27
2022-11-15T17:22:25.977Z,14.31
2022-11-15T17:24:27.790Z,14.24
2022-11-15T17:26:32.017Z,14.28
2022-11-15T17:28:35.772Z,14.25
2022-11-15T17:30:37.414Z,14.31
2022-11-15T17:32:39.329Z,14.25
2022-11-15T17:34:57.447Z,14.26
2022-11-15T17:36:59.163Z,14.24
2022-11-15T17:39:02.907Z,14.19
2022-11-15T17:41:09.479Z,14.22
2022-11-15T17:43:11.131Z,14.03
2022-11-15T17:45:13.431Z,14.12
2022-11-15T17:47:15.225Z,14.17
2022-11-15T17:49:17.008Z,14.24
2022-11-15T17:51:19.318Z,14.15
2022-11-15T17:53:21.474Z,14.02
2022-11-15T17:55:23.456Z,14.15
2022-11-15T17:57:25.103Z,14.10
2022-11-15T17:59:27.698Z,14.11
2022-11-15T18:01:31.861Z,14.19
2022-11-15T18:03:35.825Z,14.12
2022-11-15T18:05:37.633Z,14.13
2022-11-15T18:07:39.355Z,14.13
2022-11-15T18:09:44.090Z,14.19
2022-11-15T18:11:50.657Z,14.15
2022-11-15T18:13:56.858Z,14.06
2022-11-15T18:16:02.690Z,14.08
2022-11-15T18:18:04.790Z,13.99
2022-11-15T18:20:06.918Z,14.12
2022-11-15T18:22:10.336Z,14.06
2022-11-15T18:24:12.262Z,14.01
2022-11-15T18:26:16.292Z,13.90
2022-11-15T18:28:17.986Z,13.81
2022-11-15T18:30:19.787Z,13.72
2022-11-15T18:32:21.757Z,13.77
2022-11-15T18:34:25.604Z,13.85
2022-11-15T18:36:29.737Z,13.80
2022-11-15T18:38:32.041Z,13.81
2022-11-15T18:40:33.727Z,13.72
2022-11-15T18:42:35.382Z,13.67
2022-11-15T18:44:37.142Z,13.55
2022-11-15T18:46:42.164Z,13.60
2022-11-15T18:48:45.211Z,13.55
2022-11-15T18:50:46.895Z,13.45
2022-11-15T18:52:50.999Z,13.59
2022-11-15T18:54:53.113Z,13.56
2022-11-15T18:56:54.801Z,13.55
2022-11-15T18:58:58.864Z,13.59
2022-11-15T19:01:02.197Z,13.48
2022-11-15T19:03:03.948Z,13.45
2022-11-15T19:05:06.023Z,13.50
2022-11-15T19:07:07.680Z,13.53
2022-11-15T19:09:22.624Z,13.52
2022-11-15T19:11:29.063Z,13.51
2022-11-15T19:13:31.203Z,13.47
2022-11-15T19:15:53.574Z,13.42
2022-11-15T19:17:55.632Z,13.33
2022-11-15T19:19:57.585Z,13.35
2022-11-15T19:21:59.399Z,13.28
2022-11-15T19:24:05.967Z,13.33
2022-11-15T19:26:13.200Z,13.23
2022-11-15T19:28:14.842Z,13.13
2022-11-15T19:30:16.879Z,13.05
2022-11-15T19:32:18.713Z,12.99
2022-11-15T19:34:24.478Z,12.88
2022-11-15T19:36:29.183Z,12.91
2022-11-15T19:38:32.710Z,12.89
2022-11-15T19:40:35.180Z,12.82
2022-11-15T19:42:36.877Z,12.80
2022-11-15T19:44:38.605Z,12.82
2022-11-15T19:46:41.242Z,12.82
2022-11-15T19:48:43.222Z,12.94
2022-11-15T19:50:44.892Z,12.94
2022-11-15T19:52:51.188Z,12.78
2022-11-15T19:54:53.353Z,12.86
2022-11-15T19:56:55.221Z,12.91
2022-11-15T19:58:57.142Z,12.94
2022-11-15T20:01:16.352Z,12.88
2022-11-15T20:03:18.084Z,12.91
2022-11-15T20:05:19.753Z,12.73
2022-11-15T20:07:21.530Z,12.65
2022-11-15T20:09:25.935Z,12.73
2022-11-15T20:11:27.757Z,12.79
2022-11-15T20:13:29.711Z,12.78
2022-11-15T20:15:31.652Z,12.65
2022-11-15T20:17:39.653Z,12.63
2022-11-15T20:19:41.406Z,12.68
2022-11-15T20:21:44.297Z,12.59
2022-11-15T20:23:47.748Z,12.57
2022-11-15T20:25:49.537Z,12.65
2022-11-15T20:27:51.587Z,12.61
2022-11-15T20:29:54.699Z,12.64
2022-11-15T20:31:56.882Z,12.64
2022-11-15T20:33:59.195Z,12.56
2022-11-15T20:36:10.404Z,12.59
2022-11-15T20:38:12.711Z,12.55
2022-11-15T20:40:14.591Z,12.52
2022-11-15T20:42:19.472Z,12.53
2022-11-15T20:44:21.187Z,12.51
2022-11-15T20:46:22.858Z,12.52
2022-11-15T20:48:24.565Z,12.54
2022-11-15T20:50:42.116Z,12.48
2022-11-15T20:52:44.788Z,12.50
2022-11-15T20:54:46.446Z,12.49
2022-11-15T20:56:48.175Z,12.55
2022-11-15T20:58:50.885Z,12.55
2022-11-15T21:04:18.833Z,12.55
2022-11-15T21:06:21.437Z,12.52
2022-11-15T21:08:23.388Z,12.58
2022-11-15T21:10:43.609Z,12.58
2022-11-15T21:12:48.754Z,12.44
2022-11-15T21:14:52.567Z,12.52
2022-11-15T21:16:54.387Z,12.38
2022-11-15T21:18:56.317Z,12.48
2022-11-15T21:21:07.532Z,12.51
2022-11-15T21:23:09.250Z,12.45
2022-11-15T21:25:11.112Z,12.37
2022-11-15T21:27:13.089Z,12.38
2022-11-15T21:29:17.452Z,12.37
2022-11-15T21:31:19.249Z,12.45
2022-11-15T21:33:21.607Z,12.43
2022-11-15T21:35:23.910Z,12.55
2022-11-15T21:37:25.795Z,12.57
2022-11-15T21:39:27.560Z,12.58
2022-11-15T21:41:29.229Z,12.47
2022-11-15T21:43:30.883Z,12.52
2022-11-15T21:45:32.588Z,12.40
2022-11-15T21:47:34.208Z,12.40
2022-11-15T21:49:35.928Z,12.36
2022-11-15T21:51:38.016Z,12.45
2022-11-15T21:53:39.703Z,12.43
2022-11-15T21:55:41.406Z,12.51
2022-11-15T21:57:43.160Z,12.45
2022-11-15T22:00:03.410Z,12.36
2022-11-15T22:02:17.308Z,12.27
2022-11-15T22:04:19.158Z,12.30
2022-11-15T22:06:20.807Z,12.30
2022-11-15T22:08:23.115Z,12.20
2022-11-15T22:10:24.925Z,12.20
2022-11-15T22:12:29.660Z,12.16
2022-11-15T22:14:31.614Z,12.17
2022-11-15T22:16:33.382Z,12.23
2022-11-15T22:18:35.547Z,12.13
2022-11-15T22:20:44.459Z,12.06
2022-11-15T22:22:48.664Z,12.18
2022-11-15T22:24:50.376Z,12.12
2022-11-15T22:26:52.067Z,12.10
2022-11-15T22:28:53.757Z,12.16
2022-11-15T22:30:56.259Z,12.05
2022-11-15T22:32:57.891Z,12.03
2022-11-15T22:34:59.526Z,12.05
2022-11-15T22:39:22.840Z,12.06
2022-11-15T22:41:24.533Z,11.97
2022-11-15T22:43:27.323Z,11.94
2022-11-15T22:45:28.966Z,11.97
2022-11-15T22:47:30.729Z,12.01
2022-11-15T22:49:32.365Z,12.03
2022-11-15T22:51:34.000Z,12.00
2022-11-15T22:53:35.736Z,11.91
2022-11-15T22:55:43.952Z,11.91
2022-11-15T22:57:45.633Z,11.89
2022-11-15T22:59:47.425Z,11.90
2022-11-15T23:01:51.811Z,11.87
2022-11-15T23:03:53.471Z,11.74
2022-11-15T23:05:55.375Z,11.79
2022-11-15T23:07:57.033Z,11.96
2022-11-15T23:10:18.666Z,11.87
2022-11-15T23:12:46.755Z,11.95
2022-11-15T23:14:48.520Z,11.95
2022-11-15T23:16:50.419Z,11.94
2022-11-15T23:18:58.351Z,11.94
2022-11-15T23:21:00.222Z,11.93
2022-11-15T23:23:01.988Z,11.92
2022-11-15T23:25:04.325Z,11.93
2022-11-15T23:27:07.575Z,11.86
2022-11-15T23:29:11.344Z,11.88
2022-11-15T23:31:31.850Z,11.85
2022-11-15T23:33:52.036Z,11.88
2022-11-15T23:35:55.460Z,11.86
2022-11-15T23:37:57.143Z,11.92
2022-11-15T23:39:58.810Z,11.95
2022-11-15T23:42:05.938Z,11.90
2022-11-15T23:44:10.929Z,11.94
2022-11-15T23:46:12.586Z,11.91
2022-11-15T23:48:14.465Z,11.96
2022-11-15T23:50:16.512Z,11.99
2022-11-15T23:52:18.287Z,11.97
2022-11-15T23:54:19.946Z,12.03
2022-11-15T23:56:22.765Z,12.08
2022-11-15T23:58:24.582Z,12.06
